Pickwick Observed Data For Previous 48 Hours

Caption
Day and Hour Reservoir Elevation (behind dam)* Tailwater Elevation (below dam)* Average Hourly Discharge*
4/7/2020 1 AM CDT 412.48 366.69 61,117
4/7/2020 2 AM CDT 412.50 366.62 61,146
4/7/2020 3 AM CDT 412.46 366.54 61,149
4/7/2020 4 AM CDT 412.45 366.48 61,093
4/7/2020 5 AM CDT 412.44 366.43 61,061
4/7/2020 6 AM CDT 412.36 366.39 60,834
4/7/2020 7 AM CDT 412.35 366.33 60,926
4/7/2020 8 AM CDT 412.32 366.35 60,910
4/7/2020 9 AM CDT 412.31 366.30 60,836
4/7/2020 10 AM CDT 412.26 366.25 60,628
4/7/2020 11 AM CDT 412.27 366.17 60,596
4/7/2020 12 PM CDT 412.24 366.09 60,445
4/7/2020 1 PM CDT 412.24 366.08 60,262
4/7/2020 2 PM CDT 412.24 366.02 60,227
4/7/2020 3 PM CDT 412.25 366.00 60,563
4/7/2020 4 PM CDT 412.28 366.01 60,711
4/7/2020 5 PM CDT 412.31 365.94 60,652
4/7/2020 6 PM CDT 412.34 365.96 60,939
4/7/2020 7 PM CDT 412.44 365.97 61,075
4/7/2020 8 PM CDT 412.52 365.97 61,279
4/7/2020 9 PM CDT 412.44 365.90 61,388
4/7/2020 10 PM CDT 412.41 365.91 61,211
4/7/2020 11 PM CDT 412.43 365.87 61,076
4/8/2020 12 AM CDT 412.46 365.81 61,225
4/8/2020 1 AM CDT 412.40 365.89 61,227
4/8/2020 2 AM CDT 412.35 365.79 60,957
4/8/2020 3 AM CDT 412.31 365.74 60,952
4/8/2020 4 AM CDT 412.31 365.70 60,890
4/8/2020 5 AM CDT 412.24 365.71 60,752
4/8/2020 6 AM CDT 412.15 365.64 60,551
4/8/2020 7 AM CDT 412.08 365.59 60,071
4/8/2020 8 AM CDT 412.06 365.54 60,110
4/8/2020 9 AM CDT 412.03 365.50 60,148
4/8/2020 10 AM CDT 411.98 365.48 59,975
4/8/2020 11 AM CDT 411.87 365.84 69,033
4/8/2020 12 PM CDT 411.89 366.31 74,140
4/8/2020 1 PM CDT 412.10 365.99 66,596
4/8/2020 2 PM CDT 412.21 364.96 43,000
4/8/2020 3 PM CDT 412.04 364.25 42,054
4/8/2020 4 PM CDT 412.11 363.97 47,176
4/8/2020 5 PM CDT 412.25 363.60 38,005
4/8/2020 6 PM CDT 412.35 363.02 32,375
4/8/2020 7 PM CDT 412.40 362.69 36,247
4/8/2020 8 PM CDT 412.53 362.41 40,016
4/8/2020 9 PM CDT 412.51 362.30 39,922
4/8/2020 10 PM CDT 412.62 362.09 39,761
4/8/2020 11 PM CDT 412.69 362.07 39,854
4/9/2020 12 AM CDT 412.74 361.88 39,851
4/9/2020 1 AM CDT 412.67 361.87 39,658
4/9/2020 2 AM CDT 412.67 361.75 39,382
4/9/2020 3 AM CDT 412.96 361.65 39,503
4/9/2020 4 AM CDT 412.88 361.60 39,891
4/9/2020 5 AM CDT 412.72 361.65 39,828
4/9/2020 6 AM CDT 412.67 361.63 39,626
4/9/2020 7 AM CDT 412.67 361.60 39,802
4/9/2020 8 AM CDT 412.56 361.68 39,745
4/9/2020 9 AM CDT 412.63 361.70 39,495
4/9/2020 10 AM CDT 412.67 361.61 39,805
4/9/2020 11 AM CDT 412.70 361.58 39,903
4/9/2020 12 PM CDT 412.68 361.56 39,533
4/9/2020 1 PM CDT 412.72 361.56 39,665
4/9/2020 2 PM CDT 412.74 361.58 39,509
4/9/2020 3 PM CDT 412.81 361.68 39,844
4/9/2020 4 PM CDT 412.84 361.62 40,141
4/9/2020 5 PM CDT 412.86 361.69 40,101
4/9/2020 6 PM CDT 412.82 361.63 39,971
4/9/2020 7 PM CDT 412.87 361.55 39,831
4/9/2020 8 PM CDT 412.94 361.48 39,636
4/9/2020 9 PM CDT 412.97 361.42 39,928
4/9/2020 10 PM CDT 412.99 361.40 40,067

Elevations are in feet above sea level. Discharges are in cubic feet per second and are reported at the end of the hour.